createdAt,value
2022-07-29T00:01:43.955Z,24.33
2022-07-29T00:04:45.463Z,24.55
2022-07-29T00:07:46.952Z,24.42
2022-07-29T00:10:48.432Z,24.19
2022-07-29T00:13:51.141Z,24.48
2022-07-29T00:16:52.888Z,24.08
2022-07-29T00:19:54.350Z,24.32
2022-07-29T00:22:55.968Z,24.45
2022-07-29T00:25:57.357Z,24.54
2022-07-29T00:29:33.153Z,24.28
2022-07-29T00:32:26.187Z,24.12
2022-07-29T00:35:45.565Z,23.94
2022-07-29T00:38:50.573Z,24.31
2022-07-29T00:41:52.080Z,24.25
2022-07-29T00:44:54.571Z,23.88
2022-07-29T00:47:56.028Z,24.08
2022-07-29T00:51:00.646Z,23.84
2022-07-29T00:54:03.117Z,24.13
2022-07-29T00:57:06.634Z,24.11
2022-07-29T01:00:12.081Z,24.20
2022-07-29T01:03:13.769Z,24.15
2022-07-29T01:06:16.325Z,24.20
2022-07-29T01:09:19.778Z,24.20
2022-07-29T01:12:37.537Z,24.20
2022-07-29T01:15:49.461Z,23.94
2022-07-29T01:18:55.414Z,23.92
2022-07-29T01:22:00.667Z,24.07
2022-07-29T01:25:21.000Z,23.99
2022-07-29T01:28:57.990Z,24.00
2022-07-29T01:32:04.791Z,23.72
2022-07-29T01:35:17.135Z,23.67
2022-07-29T01:38:23.149Z,23.62
2022-07-29T01:41:27.582Z,23.25
2022-07-29T01:44:36.620Z,23.04
2022-07-29T01:48:01.834Z,23.01
2022-07-29T01:51:09.365Z,23.21
2022-07-29T01:54:20.842Z,23.02
2022-07-29T01:57:27.109Z,23.04
2022-07-29T02:00:32.459Z,22.99
2022-07-29T02:03:36.662Z,23.48
2022-07-29T02:06:41.610Z,23.06
2022-07-29T02:09:44.867Z,22.97
2022-07-29T02:12:50.732Z,23.18
2022-07-29T02:15:54.755Z,23.23
2022-07-29T02:18:58.935Z,23.17
2022-07-29T02:22:01.603Z,23.23
2022-07-29T02:25:03.824Z,23.16
2022-07-29T02:28:07.575Z,23.32
2022-07-29T02:31:10.385Z,23.29
2022-07-29T02:34:13.626Z,23.26
2022-07-29T02:37:18.180Z,23.04
2022-07-29T02:40:19.816Z,23.14
2022-07-29T02:43:23.503Z,23.19
2022-07-29T02:46:35.120Z,23.04
2022-07-29T02:49:44.008Z,22.97
2022-07-29T02:52:53.493Z,22.95
2022-07-29T02:56:01.473Z,22.96
2022-07-29T02:59:06.896Z,22.35
2022-07-29T03:02:10.634Z,22.74
2022-07-29T03:05:19.977Z,22.63
2022-07-29T03:08:22.789Z,22.20
2022-07-29T03:11:42.321Z,22.37
2022-07-29T03:14:47.375Z,22.76
2022-07-29T03:17:50.205Z,22.32
2022-07-29T03:20:51.731Z,22.53
2022-07-29T03:23:53.221Z,22.62
2022-07-29T03:26:56.235Z,22.05
2022-07-29T03:29:57.714Z,22.62
2022-07-29T03:32:59.751Z,22.76
2022-07-29T03:36:03.268Z,22.72
2022-07-29T03:39:05.718Z,22.71
2022-07-29T03:42:09.262Z,22.68
2022-07-29T03:45:16.338Z,22.41
2022-07-29T03:48:21.455Z,22.45
2022-07-29T03:51:33.066Z,22.52
2022-07-29T03:54:35.796Z,22.46
2022-07-29T03:57:38.814Z,22.24
2022-07-29T04:00:41.464Z,22.48
2022-07-29T04:03:43.024Z,22.48
2022-07-29T04:06:48.369Z,22.40
2022-07-29T04:09:50.181Z,22.54
2022-07-29T04:12:51.635Z,22.37
2022-07-29T04:15:53.112Z,22.01
2022-07-29T04:18:54.606Z,22.30
2022-07-29T04:21:56.101Z,22.36
2022-07-29T04:25:03.258Z,22.36
2022-07-29T04:28:05.696Z,22.12
2022-07-29T04:31:07.843Z,21.99
2022-07-29T04:34:09.960Z,22.12
2022-07-29T04:37:11.652Z,22.31
2022-07-29T04:40:13.335Z,22.18
2022-07-29T04:43:16.145Z,22.15
2022-07-29T04:46:17.634Z,21.53
2022-07-29T04:49:19.243Z,21.74
2022-07-29T04:52:20.748Z,21.80
2022-07-29T04:55:22.214Z,21.93
2022-07-29T04:58:24.538Z,22.21
2022-07-29T05:01:26.081Z,22.03
2022-07-29T05:04:27.616Z,21.94
2022-07-29T05:07:29.178Z,21.80
2022-07-29T05:10:30.968Z,21.87
2022-07-29T05:13:45.932Z,21.74
2022-07-29T05:16:49.580Z,21.75
2022-07-29T05:19:52.239Z,21.84
2022-07-29T05:22:53.815Z,21.94
2022-07-29T05:25:55.295Z,22.15
2022-07-29T05:28:57.943Z,22.31
2022-07-29T05:31:59.579Z,22.45
2022-07-29T05:35:01.805Z,22.36
2022-07-29T05:38:03.441Z,22.19
2022-07-29T05:41:06.253Z,22.54
2022-07-29T05:44:07.761Z,22.46
2022-07-29T05:47:09.673Z,22.57
2022-07-29T05:50:11.500Z,22.57
2022-07-29T05:53:20.072Z,22.49
2022-07-29T05:56:21.934Z,22.65
2022-07-29T05:59:27.051Z,22.72
2022-07-29T06:02:31.539Z,22.83
2022-07-29T06:05:33.288Z,22.87
2022-07-29T06:08:34.860Z,23.13
2022-07-29T06:11:36.407Z,23.01
2022-07-29T06:14:39.245Z,22.89
2022-07-29T06:17:59.941Z,22.91
2022-07-29T06:21:02.332Z,23.33
2022-07-29T06:24:04.045Z,23.26
2022-07-29T06:27:05.495Z,23.06
2022-07-29T06:30:09.882Z,23.02
2022-07-29T06:33:17.514Z,23.17
2022-07-29T06:36:19.063Z,23.20
2022-07-29T06:39:20.842Z,23.36
2022-07-29T06:42:22.347Z,23.30
2022-07-29T06:45:25.185Z,23.57
2022-07-29T06:48:30.379Z,23.54
2022-07-29T06:51:31.977Z,23.53
2022-07-29T06:54:33.752Z,23.50
2022-07-29T06:57:35.290Z,23.74
2022-07-29T07:00:36.778Z,24.02
2022-07-29T07:03:38.253Z,24.07
2022-07-29T07:06:40.191Z,24.13
2022-07-29T07:09:41.707Z,24.07
2022-07-29T07:12:43.180Z,23.93
2022-07-29T07:15:46.436Z,23.98
2022-07-29T07:18:48.051Z,24.26
2022-07-29T07:21:49.557Z,24.28
2022-07-29T07:24:51.290Z,24.13
2022-07-29T07:27:52.672Z,24.10
2022-07-29T07:30:54.125Z,24.23
2022-07-29T07:33:55.571Z,24.22
2022-07-29T07:36:57.232Z,24.27
2022-07-29T07:39:59.012Z,24.23
2022-07-29T07:43:00.363Z,24.26
2022-07-29T07:46:01.945Z,24.61
2022-07-29T07:49:03.383Z,24.63
2022-07-29T07:52:05.310Z,24.96
2022-07-29T07:55:08.659Z,25.28
2022-07-29T07:58:10.721Z,25.14
2022-07-29T08:01:12.217Z,25.02
2022-07-29T08:04:14.738Z,25.01
2022-07-29T08:07:16.520Z,25.19
2022-07-29T08:10:38.733Z,25.26
2022-07-29T08:13:40.238Z,25.09
2022-07-29T08:16:43.189Z,25.17
2022-07-29T08:19:44.725Z,25.56
2022-07-29T08:22:47.084Z,25.54
2022-07-29T08:25:50.261Z,26.13
2022-07-29T08:28:52.145Z,26.64
2022-07-29T08:31:54.066Z,26.69
2022-07-29T08:34:55.782Z,26.70
2022-07-29T08:37:57.814Z,26.62
2022-07-29T08:41:01.221Z,26.87
2022-07-29T08:44:02.904Z,27.48
2022-07-29T08:47:04.552Z,27.85
2022-07-29T08:50:07.611Z,27.11
2022-07-29T08:53:13.019Z,26.86
2022-07-29T08:56:18.275Z,26.99
2022-07-29T08:59:25.566Z,26.65
2022-07-29T09:02:29.763Z,26.29
2022-07-29T09:05:36.892Z,26.33
2022-07-29T09:08:42.254Z,26.17
2022-07-29T09:11:45.277Z,26.19
2022-07-29T09:14:46.661Z,26.42
2022-07-29T09:17:50.609Z,26.65
2022-07-29T09:21:12.115Z,26.73
2022-07-29T09:24:14.705Z,26.76
2022-07-29T09:27:29.931Z,26.92
2022-07-29T09:30:31.848Z,26.53
2022-07-29T09:33:41.282Z,26.45
2022-07-29T09:36:45.869Z,27.20
2022-07-29T09:39:47.453Z,27.92
2022-07-29T09:42:49.590Z,28.28
2022-07-29T09:45:51.202Z,27.96
2022-07-29T09:49:09.810Z,28.36
2022-07-29T09:52:12.144Z,28.73
2022-07-29T09:55:18.154Z,27.82
2022-07-29T09:58:22.220Z,27.55
2022-07-29T10:01:30.179Z,27.47
2022-07-29T10:04:42.845Z,28.13
2022-07-29T10:07:50.569Z,28.13
2022-07-29T10:11:10.378Z,28.20
2022-07-29T10:14:12.167Z,28.08
2022-07-29T10:17:13.725Z,27.97
2022-07-29T10:20:16.563Z,27.84
2022-07-29T10:23:18.206Z,28.41
2022-07-29T10:26:20.153Z,28.78
2022-07-29T10:29:21.651Z,28.58
2022-07-29T10:32:30.908Z,28.41
2022-07-29T10:35:51.071Z,29.23
2022-07-29T10:39:03.141Z,29.49
2022-07-29T10:42:20.322Z,29.18
2022-07-29T10:45:31.576Z,29.24
2022-07-29T10:48:33.307Z,29.86
2022-07-29T10:51:59.947Z,29.38
2022-07-29T10:55:03.977Z,28.97
2022-07-29T10:58:19.283Z,28.81
2022-07-29T11:01:37.044Z,29.71
2022-07-29T11:04:45.603Z,29.57
2022-07-29T11:08:20.288Z,29.09
2022-07-29T11:11:29.528Z,28.27
2022-07-29T11:14:53.363Z,28.34
2022-07-29T11:17:54.854Z,28.49
2022-07-29T11:20:56.326Z,28.62
2022-07-29T11:24:18.709Z,28.69
2022-07-29T11:27:40.440Z,28.62
2022-07-29T11:30:50.599Z,28.47
2022-07-29T11:33:56.543Z,28.44
2022-07-29T11:37:08.126Z,28.37
2022-07-29T11:40:12.560Z,28.48
2022-07-29T11:43:53.474Z,28.41
2022-07-29T11:46:55.374Z,28.52
2022-07-29T11:49:59.950Z,28.48
2022-07-29T11:53:08.832Z,28.51
2022-07-29T11:56:16.427Z,28.51
2022-07-29T11:59:20.353Z,28.34
2022-07-29T12:02:38.264Z,28.16
2022-07-29T12:09:11.234Z,27.89
2022-07-29T12:12:17.892Z,27.97
2022-07-29T12:15:22.202Z,27.80
2022-07-29T12:18:24.599Z,27.49
2022-07-29T12:21:26.692Z,27.74
2022-07-29T12:24:44.996Z,27.81
2022-07-29T12:27:46.897Z,28.01
2022-07-29T12:30:51.748Z,28.07
2022-07-29T12:33:54.733Z,28.27
2022-07-29T12:36:57.173Z,27.95
2022-07-29T12:39:59.019Z,28.19
2022-07-29T12:43:08.481Z,28.38
2022-07-29T12:46:15.932Z,28.21
2022-07-29T12:49:24.084Z,27.99
2022-07-29T12:52:26.332Z,28.05
2022-07-29T12:55:50.007Z,28.39
2022-07-29T12:58:51.633Z,28.48
2022-07-29T13:01:53.311Z,28.70
2022-07-29T13:04:59.778Z,28.79
2022-07-29T13:08:30.835Z,28.62
2022-07-29T13:11:34.341Z,28.58
2022-07-29T13:14:39.448Z,28.59
2022-07-29T13:17:44.548Z,28.36
2022-07-29T13:20:49.517Z,28.46
2022-07-29T13:23:51.086Z,27.91
2022-07-29T13:26:53.394Z,28.17
2022-07-29T13:29:58.544Z,28.22
2022-07-29T13:33:00.040Z,28.14
2022-07-29T13:36:01.541Z,28.15
2022-07-29T13:39:03.707Z,28.30
2022-07-29T13:42:10.771Z,28.35
2022-07-29T13:45:12.774Z,28.65
2022-07-29T13:48:14.596Z,28.34
2022-07-29T13:51:16.295Z,28.36
2022-07-29T13:54:18.077Z,28.29
2022-07-29T13:57:20.092Z,28.33
2022-07-29T14:00:21.646Z,28.25
2022-07-29T14:03:23.305Z,28.36
2022-07-29T14:06:25.129Z,28.27
2022-07-29T14:09:27.080Z,28.11
2022-07-29T14:12:28.684Z,28.29
2022-07-29T14:15:30.149Z,28.51
2022-07-29T14:18:31.544Z,28.71
2022-07-29T14:21:33.649Z,28.49
2022-07-29T14:24:38.551Z,28.49
2022-07-29T14:27:40.412Z,28.71
2022-07-29T14:30:44.187Z,28.70
2022-07-29T14:33:46.272Z,28.84
2022-07-29T14:36:50.986Z,28.90
2022-07-29T14:39:52.425Z,28.80
2022-07-29T14:42:54.167Z,28.89
2022-07-29T14:46:01.228Z,28.56
2022-07-29T14:49:04.506Z,28.59
2022-07-29T14:52:08.554Z,28.64
2022-07-29T14:55:16.589Z,28.81
2022-07-29T14:58:23.199Z,28.79
2022-07-29T15:01:25.616Z,28.89
2022-07-29T15:04:27.268Z,29.05
2022-07-29T15:07:28.943Z,28.83
2022-07-29T15:10:30.573Z,28.78
2022-07-29T15:13:32.012Z,28.82
2022-07-29T15:16:33.735Z,28.56
2022-07-29T15:19:35.443Z,28.40
2022-07-29T15:22:38.044Z,28.43
2022-07-29T15:25:40.539Z,28.58
2022-07-29T15:28:42.248Z,28.96
2022-07-29T15:31:44.731Z,28.55
2022-07-29T15:34:46.397Z,28.57
2022-07-29T15:37:48.985Z,28.44
2022-07-29T15:40:50.922Z,28.46
2022-07-29T15:43:52.327Z,28.45
2022-07-29T15:47:07.309Z,28.50
2022-07-29T15:50:14.315Z,28.17
2022-07-29T15:53:15.780Z,28.32
2022-07-29T15:56:17.850Z,28.48
2022-07-29T15:59:22.409Z,28.35
2022-07-29T16:02:24.290Z,28.57
2022-07-29T16:05:26.180Z,28.59
2022-07-29T16:08:27.745Z,28.25
2022-07-29T16:11:29.184Z,28.44
2022-07-29T16:14:30.597Z,28.59
2022-07-29T16:17:32.045Z,28.80
2022-07-29T16:20:33.421Z,28.56
2022-07-29T16:23:34.863Z,28.91
2022-07-29T16:26:36.252Z,28.54
2022-07-29T16:29:37.767Z,28.66
2022-07-29T16:32:39.791Z,28.93
2022-07-29T16:35:41.252Z,29.05
2022-07-29T16:38:46.982Z,28.54
2022-07-29T16:41:49.261Z,28.82
2022-07-29T16:44:50.893Z,29.14
2022-07-29T16:48:00.188Z,28.67
2022-07-29T16:51:02.588Z,28.50
2022-07-29T16:54:04.229Z,28.67
2022-07-29T16:57:05.720Z,28.75
2022-07-29T17:00:08.073Z,28.55
2022-07-29T17:03:09.708Z,28.13
2022-07-29T17:06:11.749Z,28.26
2022-07-29T17:09:15.144Z,28.26
2022-07-29T17:12:16.781Z,28.18
2022-07-29T17:15:18.587Z,28.03
2022-07-29T17:18:20.058Z,28.10
2022-07-29T17:21:22.056Z,27.85
2022-07-29T17:24:23.551Z,27.69
2022-07-29T17:27:25.804Z,27.89
2022-07-29T17:30:27.386Z,27.68
2022-07-29T17:33:28.912Z,27.38
2022-07-29T17:36:30.669Z,27.54
2022-07-29T17:39:32.759Z,27.43
2022-07-29T17:42:34.273Z,27.41
2022-07-29T17:45:49.817Z,27.20
2022-07-29T17:48:52.426Z,27.15
2022-07-29T17:51:57.617Z,26.82
2022-07-29T17:55:02.567Z,26.99
2022-07-29T17:58:04.072Z,27.05
2022-07-29T18:01:05.716Z,27.25
2022-07-29T18:04:08.663Z,27.16
2022-07-29T18:07:10.568Z,26.96
2022-07-29T18:10:12.087Z,27.01
2022-07-29T18:13:13.803Z,27.02
2022-07-29T18:16:15.311Z,27.05
2022-07-29T18:19:16.807Z,26.96
2022-07-29T18:22:19.187Z,27.04
2022-07-29T18:25:20.810Z,26.82
2022-07-29T18:28:22.355Z,26.75
2022-07-29T18:31:23.836Z,26.85
2022-07-29T18:34:25.448Z,26.84
2022-07-29T18:38:02.142Z,26.74
2022-07-29T18:40:48.709Z,26.52
2022-07-29T18:43:50.220Z,26.64
2022-07-29T18:46:52.101Z,26.64
2022-07-29T18:49:53.705Z,26.47
2022-07-29T18:52:56.468Z,26.42
2022-07-29T18:56:00.245Z,26.18
2022-07-29T18:59:03.056Z,26.11
2022-07-29T19:02:04.720Z,25.81
2022-07-29T19:05:08.246Z,25.79
2022-07-29T19:08:09.759Z,25.67
2022-07-29T19:11:12.928Z,25.45
2022-07-29T19:14:14.381Z,25.28
2022-07-29T19:17:15.846Z,25.14
2022-07-29T19:20:17.513Z,24.97
2022-07-29T19:23:19.536Z,25.03
2022-07-29T19:26:21.033Z,25.03
2022-07-29T19:29:23.640Z,25.08
2022-07-29T19:32:25.604Z,25.05
2022-07-29T19:35:33.432Z,24.97
2022-07-29T19:38:35.004Z,24.73
2022-07-29T19:41:36.618Z,24.80
2022-07-29T19:44:37.994Z,24.63
2022-07-29T19:47:39.688Z,24.50
2022-07-29T19:50:41.696Z,24.45
2022-07-29T19:53:45.202Z,24.44
2022-07-29T19:56:46.632Z,24.48
2022-07-29T19:59:48.336Z,24.47
2022-07-29T20:02:51.731Z,24.64
2022-07-29T20:05:53.437Z,24.97
2022-07-29T20:08:58.779Z,25.30
2022-07-29T20:12:00.777Z,25.02
2022-07-29T20:15:02.274Z,25.02
2022-07-29T20:18:04.000Z,25.04
2022-07-29T20:21:05.433Z,24.77
2022-07-29T20:24:07.355Z,24.95
2022-07-29T20:27:13.564Z,24.90
2022-07-29T20:30:15.356Z,24.70
2022-07-29T20:33:19.236Z,25.13
2022-07-29T20:36:20.759Z,24.86
2022-07-29T20:39:22.252Z,25.15
2022-07-29T20:42:23.773Z,25.23
2022-07-29T20:45:25.511Z,25.33
2022-07-29T20:48:26.914Z,24.93
2022-07-29T20:51:28.568Z,25.01
2022-07-29T20:54:29.947Z,25.07
2022-07-29T20:57:39.390Z,25.05
2022-07-29T21:00:41.302Z,24.90
2022-07-29T21:03:42.796Z,24.89
2022-07-29T21:06:44.253Z,24.94
2022-07-29T21:09:45.943Z,24.99
2022-07-29T21:12:47.463Z,24.98
2022-07-29T21:15:50.692Z,24.94
2022-07-29T21:18:53.088Z,24.86
2022-07-29T21:21:54.667Z,24.82
2022-07-29T21:24:56.201Z,24.83
2022-07-29T21:28:16.340Z,24.53
2022-07-29T21:31:18.083Z,24.53
2022-07-29T21:34:19.538Z,24.43
2022-07-29T21:37:21.562Z,24.47
2022-07-29T21:40:23.083Z,24.46
2022-07-29T21:43:26.591Z,24.37
2022-07-29T21:46:28.133Z,24.38
2022-07-29T21:49:29.635Z,24.26
2022-07-29T21:52:31.202Z,24.39
2022-07-29T21:55:33.150Z,24.74
2022-07-29T21:58:34.537Z,24.75
2022-07-29T22:01:39.396Z,24.69
2022-07-29T22:04:41.213Z,24.83
2022-07-29T22:07:54.244Z,25.03
2022-07-29T22:10:57.178Z,25.00
2022-07-29T22:13:59.115Z,24.74
2022-07-29T22:17:00.839Z,24.68
2022-07-29T22:20:02.983Z,25.00
2022-07-29T22:23:04.450Z,24.89
2022-07-29T22:26:05.953Z,24.72
2022-07-29T22:29:07.507Z,24.39
2022-07-29T22:32:09.276Z,24.56
2022-07-29T22:35:11.261Z,24.64
2022-07-29T22:38:12.717Z,24.52
2022-07-29T22:41:15.638Z,23.81
2022-07-29T22:44:17.297Z,23.98
2022-07-29T22:47:18.793Z,24.01
2022-07-29T22:50:40.290Z,23.96
2022-07-29T22:53:41.820Z,23.90
2022-07-29T22:56:43.257Z,23.77
2022-07-29T22:59:44.757Z,23.82
2022-07-29T23:02:47.580Z,23.59
2022-07-29T23:05:51.464Z,23.43
2022-07-29T23:08:52.933Z,23.72
2022-07-29T23:11:54.393Z,23.72
2022-07-29T23:14:55.894Z,23.20
2022-07-29T23:17:57.350Z,23.47
2022-07-29T23:20:58.825Z,23.39
2022-07-29T23:24:00.263Z,22.93
2022-07-29T23:27:01.960Z,22.86
2022-07-29T23:30:04.531Z,22.52
2022-07-29T23:33:06.249Z,23.03
2022-07-29T23:36:07.671Z,23.07
2022-07-29T23:39:11.308Z,22.96
2022-07-29T23:42:12.898Z,22.69
2022-07-29T23:45:14.586Z,22.40
2022-07-29T23:48:16.080Z,22.63
2022-07-29T23:51:17.514Z,23.01
2022-07-29T23:54:19.040Z,23.19
2022-07-29T23:57:24.323Z,22.40
